sensor_id;sensor_type;location;lat;lon;timestamp;P1;durP1;ratioP1;P2;durP2;ratioP2
69085;SDS011;56186;59.144;37.936;2022-08-01T00:02:09;6.72;;;2.83;;
69085;SDS011;56186;59.144;37.936;2022-08-01T00:04:34;4.70;;;2.60;;
69085;SDS011;56186;59.144;37.936;2022-08-01T00:07:01;7.07;;;2.85;;
69085;SDS011;56186;59.144;37.936;2022-08-01T00:09:27;5.97;;;2.70;;
69085;SDS011;56186;59.144;37.936;2022-08-01T00:11:53;6.28;;;3.00;;
69085;SDS011;56186;59.144;37.936;2022-08-01T00:14:19;7.03;;;3.13;;
69085;SDS011;56186;59.144;37.936;2022-08-01T00:16:45;5.22;;;2.80;;
69085;SDS011;56186;59.144;37.936;2022-08-01T00:19:11;4.85;;;2.50;;
69085;SDS011;56186;59.144;37.936;2022-08-01T00:21:37;6.00;;;2.80;;
69085;SDS011;56186;59.144;37.936;2022-08-01T00:24:03;5.78;;;2.60;;
69085;SDS011;56186;59.144;37.936;2022-08-01T00:26:29;6.35;;;2.90;;
69085;SDS011;56186;59.144;37.936;2022-08-01T00:28:55;7.55;;;3.00;;
69085;SDS011;56186;59.144;37.936;2022-08-01T00:31:21;7.03;;;3.22;;
69085;SDS011;56186;59.144;37.936;2022-08-01T00:33:47;5.57;;;2.80;;
69085;SDS011;56186;59.144;37.936;2022-08-01T00:36:13;4.72;;;2.60;;
69085;SDS011;56186;59.144;37.936;2022-08-01T00:38:39;5.38;;;2.90;;
69085;SDS011;56186;59.144;37.936;2022-08-01T00:41:05;5.22;;;2.50;;
69085;SDS011;56186;59.144;37.936;2022-08-01T00:43:31;5.88;;;2.70;;
69085;SDS011;56186;59.144;37.936;2022-08-01T00:45:57;6.22;;;2.92;;
69085;SDS011;56186;59.144;37.936;2022-08-01T00:48:23;5.65;;;2.80;;
69085;SDS011;56186;59.144;37.936;2022-08-01T00:50:49;5.22;;;2.75;;
69085;SDS011;56186;59.144;37.936;2022-08-01T00:53:15;4.97;;;2.70;;
69085;SDS011;56186;59.144;37.936;2022-08-01T00:55:41;6.55;;;2.90;;
69085;SDS011;56186;59.144;37.936;2022-08-01T00:58:08;5.22;;;2.95;;
69085;SDS011;56186;59.144;37.936;2022-08-01T01:00:34;5.97;;;2.75;;
69085;SDS011;56186;59.144;37.936;2022-08-01T01:03:02;7.32;;;3.05;;
69085;SDS011;56186;59.144;37.936;2022-08-01T01:05:28;4.80;;;2.50;;
69085;SDS011;56186;59.144;37.936;2022-08-01T01:08:02;5.93;;;2.90;;
69085;SDS011;56186;59.144;37.936;2022-08-01T01:10:39;5.00;;;2.63;;
69085;SDS011;56186;59.144;37.936;2022-08-01T01:15:50;5.93;;;2.80;;
69085;SDS011;56186;59.144;37.936;2022-08-01T01:18:30;5.22;;;2.90;;
69085;SDS011;56186;59.144;37.936;2022-08-01T01:21:06;4.97;;;2.60;;
69085;SDS011;56186;59.144;37.936;2022-08-01T01:26:57;5.43;;;2.60;;
69085;SDS011;56186;59.144;37.936;2022-08-01T01:29:30;5.35;;;2.67;;
69085;SDS011;56186;59.144;37.936;2022-08-01T01:32:07;5.45;;;2.42;;
69085;SDS011;56186;59.144;37.936;2022-08-01T01:34:34;4.57;;;2.53;;
69085;SDS011;56186;59.144;37.936;2022-08-01T01:37:04;5.38;;;2.53;;
69085;SDS011;56186;59.144;37.936;2022-08-01T01:39:35;5.07;;;2.85;;
69085;SDS011;56186;59.144;37.936;2022-08-01T01:42:02;5.30;;;2.92;;
69085;SDS011;56186;59.144;37.936;2022-08-01T01:44:31;6.70;;;2.85;;
69085;SDS011;56186;59.144;37.936;2022-08-01T01:47:00;5.32;;;2.75;;
69085;SDS011;56186;59.144;37.936;2022-08-01T01:49:27;4.85;;;2.90;;
69085;SDS011;56186;59.144;37.936;2022-08-01T01:51:56;6.05;;;3.03;;
69085;SDS011;56186;59.144;37.936;2022-08-01T01:54:24;6.10;;;3.25;;
69085;SDS011;56186;59.144;37.936;2022-08-01T01:56:56;7.93;;;3.00;;
69085;SDS011;56186;59.144;37.936;2022-08-01T01:59:25;6.80;;;3.40;;
69085;SDS011;56186;59.144;37.936;2022-08-01T02:01:55;6.82;;;3.50;;
69085;SDS011;56186;59.144;37.936;2022-08-01T02:04:24;6.68;;;3.28;;
69085;SDS011;56186;59.144;37.936;2022-08-01T02:06:53;6.30;;;3.42;;
69085;SDS011;56186;59.144;37.936;2022-08-01T02:09:20;9.68;;;3.53;;
69085;SDS011;56186;59.144;37.936;2022-08-01T02:11:49;7.78;;;3.17;;
69085;SDS011;56186;59.144;37.936;2022-08-01T02:14:16;5.85;;;3.47;;
69085;SDS011;56186;59.144;37.936;2022-08-01T02:16:45;5.88;;;3.28;;
69085;SDS011;56186;59.144;37.936;2022-08-01T02:19:14;5.50;;;2.78;;
69085;SDS011;56186;59.144;37.936;2022-08-01T02:24:24;9.20;;;4.60;;
69085;SDS011;56186;59.144;37.936;2022-08-01T02:27:12;10.82;;;4.45;;
69085;SDS011;56186;59.144;37.936;2022-08-01T02:29:58;8.40;;;3.50;;
69085;SDS011;56186;59.144;37.936;2022-08-01T02:32:30;10.20;;;4.00;;
69085;SDS011;56186;59.144;37.936;2022-08-01T02:35:00;8.07;;;4.20;;
69085;SDS011;56186;59.144;37.936;2022-08-01T02:37:29;9.65;;;4.20;;
69085;SDS011;56186;59.144;37.936;2022-08-01T02:39:59;8.65;;;4.25;;
69085;SDS011;56186;59.144;37.936;2022-08-01T02:42:26;8.43;;;3.95;;
69085;SDS011;56186;59.144;37.936;2022-08-01T02:44:55;8.32;;;4.15;;
69085;SDS011;56186;59.144;37.936;2022-08-01T02:47:23;7.75;;;4.07;;
69085;SDS011;56186;59.144;37.936;2022-08-01T02:49:52;9.27;;;4.30;;
69085;SDS011;56186;59.144;37.936;2022-08-01T02:52:21;7.60;;;4.10;;
69085;SDS011;56186;59.144;37.936;2022-08-01T02:54:51;9.55;;;4.70;;
69085;SDS011;56186;59.144;37.936;2022-08-01T02:57:20;7.95;;;4.43;;
69085;SDS011;56186;59.144;37.936;2022-08-01T02:59:47;6.60;;;3.30;;
69085;SDS011;56186;59.144;37.936;2022-08-01T03:02:16;7.43;;;3.33;;
69085;SDS011;56186;59.144;37.936;2022-08-01T03:04:44;7.03;;;2.67;;
69085;SDS011;56186;59.144;37.936;2022-08-01T03:07:12;5.18;;;2.60;;
69085;SDS011;56186;59.144;37.936;2022-08-01T03:09:40;5.47;;;2.55;;
69085;SDS011;56186;59.144;37.936;2022-08-01T03:12:11;8.13;;;3.03;;
69085;SDS011;56186;59.144;37.936;2022-08-01T03:14:42;6.07;;;3.13;;
69085;SDS011;56186;59.144;37.936;2022-08-01T03:17:10;7.63;;;2.95;;
69085;SDS011;56186;59.144;37.936;2022-08-01T03:19:37;9.63;;;3.53;;
69085;SDS011;56186;59.144;37.936;2022-08-01T03:22:08;8.82;;;3.83;;
69085;SDS011;56186;59.144;37.936;2022-08-01T03:24:37;14.15;;;3.65;;
69085;SDS011;56186;59.144;37.936;2022-08-01T03:27:06;5.38;;;2.70;;
69085;SDS011;56186;59.144;37.936;2022-08-01T03:29:33;9.95;;;3.10;;
69085;SDS011;56186;59.144;37.936;2022-08-01T03:32:01;8.70;;;3.05;;
69085;SDS011;56186;59.144;37.936;2022-08-01T03:34:28;7.07;;;2.72;;
69085;SDS011;56186;59.144;37.936;2022-08-01T03:39:27;6.28;;;2.95;;
69085;SDS011;56186;59.144;37.936;2022-08-01T03:41:58;7.47;;;2.38;;
69085;SDS011;56186;59.144;37.936;2022-08-01T03:44:28;4.75;;;2.47;;
69085;SDS011;56186;59.144;37.936;2022-08-01T03:47:02;6.30;;;2.42;;
69085;SDS011;56186;59.144;37.936;2022-08-01T03:49:33;6.57;;;3.33;;
69085;SDS011;56186;59.144;37.936;2022-08-01T03:52:03;11.68;;;3.25;;
69085;SDS011;56186;59.144;37.936;2022-08-01T03:54:33;6.28;;;2.60;;
69085;SDS011;56186;59.144;37.936;2022-08-01T03:57:02;5.35;;;2.42;;
69085;SDS011;56186;59.144;37.936;2022-08-01T03:59:30;7.93;;;3.33;;
69085;SDS011;56186;59.144;37.936;2022-08-01T04:02:00;6.43;;;2.60;;
69085;SDS011;56186;59.144;37.936;2022-08-01T04:04:28;5.63;;;2.40;;
69085;SDS011;56186;59.144;37.936;2022-08-01T04:06:54;6.22;;;2.20;;
69085;SDS011;56186;59.144;37.936;2022-08-01T04:09:21;6.15;;;2.72;;
69085;SDS011;56186;59.144;37.936;2022-08-01T04:11:48;5.35;;;2.65;;
69085;SDS011;56186;59.144;37.936;2022-08-01T04:14:14;5.88;;;2.60;;
69085;SDS011;56186;59.144;37.936;2022-08-01T04:16:40;6.80;;;2.38;;
69085;SDS011;56186;59.144;37.936;2022-08-01T04:19:06;6.55;;;2.60;;
69085;SDS011;56186;59.144;37.936;2022-08-01T04:21:34;6.93;;;2.60;;
69085;SDS011;56186;59.144;37.936;2022-08-01T04:24:01;4.72;;;2.40;;
69085;SDS011;56186;59.144;37.936;2022-08-01T04:26:33;5.93;;;2.40;;
69085;SDS011;56186;59.144;37.936;2022-08-01T04:29:02;6.15;;;2.53;;
69085;SDS011;56186;59.144;37.936;2022-08-01T04:31:30;6.07;;;2.20;;
69085;SDS011;56186;59.144;37.936;2022-08-01T04:33:58;6.03;;;2.40;;
69085;SDS011;56186;59.144;37.936;2022-08-01T04:36:26;5.03;;;2.70;;
69085;SDS011;56186;59.144;37.936;2022-08-01T04:38:55;5.88;;;2.90;;
69085;SDS011;56186;59.144;37.936;2022-08-01T04:41:25;7.00;;;3.35;;
69085;SDS011;56186;59.144;37.936;2022-08-01T04:43:52;12.05;;;6.78;;
69085;SDS011;56186;59.144;37.936;2022-08-01T04:46:19;9.00;;;3.85;;
69085;SDS011;56186;59.144;37.936;2022-08-01T04:48:46;7.88;;;4.45;;
69085;SDS011;56186;59.144;37.936;2022-08-01T04:51:15;8.88;;;4.45;;
69085;SDS011;56186;59.144;37.936;2022-08-01T04:53:43;6.90;;;4.03;;
69085;SDS011;56186;59.144;37.936;2022-08-01T04:56:11;7.47;;;3.80;;
69085;SDS011;56186;59.144;37.936;2022-08-01T04:58:39;7.28;;;3.40;;
69085;SDS011;56186;59.144;37.936;2022-08-01T05:01:06;6.10;;;3.22;;
69085;SDS011;56186;59.144;37.936;2022-08-01T05:03:33;5.50;;;2.70;;
69085;SDS011;56186;59.144;37.936;2022-08-01T05:05:59;6.53;;;3.80;;
69085;SDS011;56186;59.144;37.936;2022-08-01T05:08:25;5.80;;;2.80;;
69085;SDS011;56186;59.144;37.936;2022-08-01T05:10:52;7.53;;;3.10;;
69085;SDS011;56186;59.144;37.936;2022-08-01T05:13:18;5.63;;;3.00;;
69085;SDS011;56186;59.144;37.936;2022-08-01T05:15:48;7.50;;;4.05;;
69085;SDS011;56186;59.144;37.936;2022-08-01T05:18:13;6.22;;;3.22;;
69085;SDS011;56186;59.144;37.936;2022-08-01T05:20:40;5.20;;;2.63;;
69085;SDS011;56186;59.144;37.936;2022-08-01T05:23:09;6.32;;;2.47;;
69085;SDS011;56186;59.144;37.936;2022-08-01T05:25:37;7.47;;;2.30;;
69085;SDS011;56186;59.144;37.936;2022-08-01T05:28:04;4.90;;;2.50;;
69085;SDS011;56186;59.144;37.936;2022-08-01T05:30:30;6.13;;;2.60;;
69085;SDS011;56186;59.144;37.936;2022-08-01T05:32:56;6.43;;;2.67;;
69085;SDS011;56186;59.144;37.936;2022-08-01T05:35:22;5.75;;;2.60;;
69085;SDS011;56186;59.144;37.936;2022-08-01T05:37:48;6.20;;;2.90;;
69085;SDS011;56186;59.144;37.936;2022-08-01T05:42:50;4.78;;;2.50;;
69085;SDS011;56186;59.144;37.936;2022-08-01T05:45:16;4.63;;;2.55;;
69085;SDS011;56186;59.144;37.936;2022-08-01T05:47:42;8.60;;;2.60;;
69085;SDS011;56186;59.144;37.936;2022-08-01T05:50:08;5.60;;;2.63;;
69085;SDS011;56186;59.144;37.936;2022-08-01T05:52:34;5.55;;;2.55;;
69085;SDS011;56186;59.144;37.936;2022-08-01T05:55:00;6.68;;;2.30;;
69085;SDS011;56186;59.144;37.936;2022-08-01T05:57:26;4.90;;;2.40;;
69085;SDS011;56186;59.144;37.936;2022-08-01T05:59:52;5.20;;;2.88;;
69085;SDS011;56186;59.144;37.936;2022-08-01T06:02:18;5.00;;;2.88;;
69085;SDS011;56186;59.144;37.936;2022-08-01T06:04:44;5.53;;;2.15;;
69085;SDS011;56186;59.144;37.936;2022-08-01T06:07:10;5.70;;;2.15;;
69085;SDS011;56186;59.144;37.936;2022-08-01T06:09:36;5.60;;;2.50;;
69085;SDS011;56186;59.144;37.936;2022-08-01T06:12:02;5.63;;;2.60;;
69085;SDS011;56186;59.144;37.936;2022-08-01T06:14:29;9.02;;;3.42;;
69085;SDS011;56186;59.144;37.936;2022-08-01T06:16:55;8.10;;;4.25;;
69085;SDS011;56186;59.144;37.936;2022-08-01T06:19:21;12.52;;;4.57;;
69085;SDS011;56186;59.144;37.936;2022-08-01T06:21:47;7.05;;;3.67;;
69085;SDS011;56186;59.144;37.936;2022-08-01T06:24:13;6.68;;;3.72;;
69085;SDS011;56186;59.144;37.936;2022-08-01T06:26:39;10.13;;;3.63;;
69085;SDS011;56186;59.144;37.936;2022-08-01T06:29:05;10.38;;;3.67;;
69085;SDS011;56186;59.144;37.936;2022-08-01T06:35:31;6.78;;;3.80;;
69085;SDS011;56186;59.144;37.936;2022-08-01T06:37:57;7.82;;;3.60;;
69085;SDS011;56186;59.144;37.936;2022-08-01T06:40:23;6.40;;;3.30;;
69085;SDS011;56186;59.144;37.936;2022-08-01T06:42:49;6.55;;;3.90;;
69085;SDS011;56186;59.144;37.936;2022-08-01T06:48:11;7.47;;;3.30;;
69085;SDS011;56186;59.144;37.936;2022-08-01T06:53:42;8.32;;;4.68;;
69085;SDS011;56186;59.144;37.936;2022-08-01T06:56:08;8.48;;;4.63;;
69085;SDS011;56186;59.144;37.936;2022-08-01T06:58:34;12.00;;;6.03;;
69085;SDS011;56186;59.144;37.936;2022-08-01T07:01:00;9.25;;;5.80;;
69085;SDS011;56186;59.144;37.936;2022-08-01T07:03:49;10.95;;;5.10;;
69085;SDS011;56186;59.144;37.936;2022-08-01T07:06:15;13.00;;;4.72;;
69085;SDS011;56186;59.144;37.936;2022-08-01T07:08:41;10.20;;;3.90;;
69085;SDS011;56186;59.144;37.936;2022-08-01T07:11:06;6.97;;;3.63;;
69085;SDS011;56186;59.144;37.936;2022-08-01T07:13:32;8.05;;;3.55;;
69085;SDS011;56186;59.144;37.936;2022-08-01T07:15:58;10.80;;;4.25;;
69085;SDS011;56186;59.144;37.936;2022-08-01T07:18:24;7.22;;;4.20;;
69085;SDS011;56186;59.144;37.936;2022-08-01T07:20:50;8.45;;;3.90;;
69085;SDS011;56186;59.144;37.936;2022-08-01T07:23:16;8.07;;;3.80;;
69085;SDS011;56186;59.144;37.936;2022-08-01T07:25:42;9.60;;;4.22;;
69085;SDS011;56186;59.144;37.936;2022-08-01T07:28:08;9.68;;;3.90;;
69085;SDS011;56186;59.144;37.936;2022-08-01T07:30:35;11.77;;;4.00;;
69085;SDS011;56186;59.144;37.936;2022-08-01T07:33:01;9.10;;;3.80;;
69085;SDS011;56186;59.144;37.936;2022-08-01T07:35:27;12.18;;;4.28;;
69085;SDS011;56186;59.144;37.936;2022-08-01T07:37:53;10.20;;;4.80;;
69085;SDS011;56186;59.144;37.936;2022-08-01T07:40:19;13.48;;;4.93;;
69085;SDS011;56186;59.144;37.936;2022-08-01T07:42:45;9.63;;;4.70;;
69085;SDS011;56186;59.144;37.936;2022-08-01T07:45:12;9.50;;;4.35;;
69085;SDS011;56186;59.144;37.936;2022-08-01T07:47:48;19.00;;;4.80;;
69085;SDS011;56186;59.144;37.936;2022-08-01T07:50:15;11.48;;;5.10;;
69085;SDS011;56186;59.144;37.936;2022-08-01T07:52:41;13.70;;;4.85;;
69085;SDS011;56186;59.144;37.936;2022-08-01T07:55:08;8.65;;;4.25;;
69085;SDS011;56186;59.144;37.936;2022-08-01T07:57:36;9.52;;;4.20;;
69085;SDS011;56186;59.144;37.936;2022-08-01T08:00:05;10.60;;;5.55;;
69085;SDS011;56186;59.144;37.936;2022-08-01T08:02:33;11.10;;;5.95;;
69085;SDS011;56186;59.144;37.936;2022-08-01T08:05:05;15.13;;;6.10;;
69085;SDS011;56186;59.144;37.936;2022-08-01T08:07:32;16.95;;;7.32;;
69085;SDS011;56186;59.144;37.936;2022-08-01T08:09:59;17.38;;;6.78;;
69085;SDS011;56186;59.144;37.936;2022-08-01T08:12:25;13.10;;;7.22;;
69085;SDS011;56186;59.144;37.936;2022-08-01T08:14:51;23.67;;;11.15;;
69085;SDS011;56186;59.144;37.936;2022-08-01T08:17:17;22.45;;;12.73;;
69085;SDS011;56186;59.144;37.936;2022-08-01T08:19:42;26.15;;;11.65;;
69085;SDS011;56186;59.144;37.936;2022-08-01T08:22:09;22.50;;;11.07;;
69085;SDS011;56186;59.144;37.936;2022-08-01T08:24:36;24.08;;;12.90;;
69085;SDS011;56186;59.144;37.936;2022-08-01T08:27:03;23.75;;;11.25;;
69085;SDS011;56186;59.144;37.936;2022-08-01T08:29:29;22.42;;;10.82;;
69085;SDS011;56186;59.144;37.936;2022-08-01T08:31:57;23.45;;;10.73;;
69085;SDS011;56186;59.144;37.936;2022-08-01T08:34:25;19.48;;;10.00;;
69085;SDS011;56186;59.144;37.936;2022-08-01T08:40:13;24.85;;;12.45;;
69085;SDS011;56186;59.144;37.936;2022-08-01T08:42:41;26.88;;;12.25;;
69085;SDS011;56186;59.144;37.936;2022-08-01T08:45:07;21.85;;;10.65;;
69085;SDS011;56186;59.144;37.936;2022-08-01T08:47:33;16.25;;;6.90;;
69085;SDS011;56186;59.144;37.936;2022-08-01T08:50:00;9.35;;;4.82;;
69085;SDS011;56186;59.144;37.936;2022-08-01T08:52:33;5.78;;;2.28;;
69085;SDS011;56186;59.144;37.936;2022-08-01T08:55:03;4.82;;;1.80;;
69085;SDS011;56186;59.144;37.936;2022-08-01T08:57:30;6.28;;;2.28;;
69085;SDS011;56186;59.144;37.936;2022-08-01T08:59:56;3.60;;;1.50;;
69085;SDS011;56186;59.144;37.936;2022-08-01T09:02:23;3.70;;;1.58;;
69085;SDS011;56186;59.144;37.936;2022-08-01T09:04:49;3.33;;;1.40;;
69085;SDS011;56186;59.144;37.936;2022-08-01T09:07:15;3.58;;;1.60;;
69085;SDS011;56186;59.144;37.936;2022-08-01T09:09:41;4.07;;;1.95;;
69085;SDS011;56186;59.144;37.936;2022-08-01T09:18:02;4.32;;;1.75;;
69085;SDS011;56186;59.144;37.936;2022-08-01T09:20:28;4.68;;;1.73;;
69085;SDS011;56186;59.144;37.936;2022-08-01T09:22:59;4.50;;;1.77;;
69085;SDS011;56186;59.144;37.936;2022-08-01T09:29:44;4.53;;;2.42;;
69085;SDS011;56186;59.144;37.936;2022-08-01T09:32:10;4.55;;;1.75;;
69085;SDS011;56186;59.144;37.936;2022-08-01T09:34:36;3.88;;;1.70;;
69085;SDS011;56186;59.144;37.936;2022-08-01T09:37:02;3.47;;;1.42;;
69085;SDS011;56186;59.144;37.936;2022-08-01T09:39:35;4.38;;;1.90;;
69085;SDS011;56186;59.144;37.936;2022-08-01T09:44:49;5.15;;;2.00;;
69085;SDS011;56186;59.144;37.936;2022-08-01T09:47:15;4.85;;;1.80;;
69085;SDS011;56186;59.144;37.936;2022-08-01T09:49:42;4.50;;;2.20;;
69085;SDS011;56186;59.144;37.936;2022-08-01T09:52:10;3.97;;;2.00;;
69085;SDS011;56186;59.144;37.936;2022-08-01T09:54:39;3.65;;;1.65;;
69085;SDS011;56186;59.144;37.936;2022-08-01T09:57:07;9.43;;;1.85;;
69085;SDS011;56186;59.144;37.936;2022-08-01T09:59:41;4.03;;;1.83;;
69085;SDS011;56186;59.144;37.936;2022-08-01T10:02:09;4.32;;;1.70;;
69085;SDS011;56186;59.144;37.936;2022-08-01T10:04:50;9.00;;;2.00;;
69085;SDS011;56186;59.144;37.936;2022-08-01T10:07:18;3.70;;;1.60;;
69085;SDS011;56186;59.144;37.936;2022-08-01T10:09:44;3.33;;;1.60;;
69085;SDS011;56186;59.144;37.936;2022-08-01T10:12:13;3.85;;;1.63;;
69085;SDS011;56186;59.144;37.936;2022-08-01T10:14:42;4.45;;;1.60;;
69085;SDS011;56186;59.144;37.936;2022-08-01T10:17:15;4.47;;;1.80;;
69085;SDS011;56186;59.144;37.936;2022-08-01T10:19:43;3.50;;;1.40;;
69085;SDS011;56186;59.144;37.936;2022-08-01T10:22:13;3.83;;;1.58;;
69085;SDS011;56186;59.144;37.936;2022-08-01T10:24:42;3.78;;;1.52;;
69085;SDS011;56186;59.144;37.936;2022-08-01T10:27:11;4.00;;;1.73;;
69085;SDS011;56186;59.144;37.936;2022-08-01T10:30:07;5.80;;;1.65;;
69085;SDS011;56186;59.144;37.936;2022-08-01T10:32:35;4.97;;;1.77;;
69085;SDS011;56186;59.144;37.936;2022-08-01T10:35:02;3.70;;;1.45;;
69085;SDS011;56186;59.144;37.936;2022-08-01T10:37:29;3.67;;;1.70;;
69085;SDS011;56186;59.144;37.936;2022-08-01T10:39:55;3.80;;;1.65;;
69085;SDS011;56186;59.144;37.936;2022-08-01T10:42:21;3.38;;;1.48;;
69085;SDS011;56186;59.144;37.936;2022-08-01T10:44:47;3.47;;;1.55;;
69085;SDS011;56186;59.144;37.936;2022-08-01T10:47:18;3.60;;;1.60;;
69085;SDS011;56186;59.144;37.936;2022-08-01T10:49:53;5.22;;;1.75;;
69085;SDS011;56186;59.144;37.936;2022-08-01T10:52:36;3.67;;;1.40;;
69085;SDS011;56186;59.144;37.936;2022-08-01T10:55:03;4.63;;;1.80;;
69085;SDS011;56186;59.144;37.936;2022-08-01T10:57:43;3.97;;;1.75;;
69085;SDS011;56186;59.144;37.936;2022-08-01T11:00:15;4.28;;;1.67;;
69085;SDS011;56186;59.144;37.936;2022-08-01T11:02:59;4.43;;;1.52;;
69085;SDS011;56186;59.144;37.936;2022-08-01T11:05:30;3.75;;;1.60;;
69085;SDS011;56186;59.144;37.936;2022-08-01T11:08:33;3.83;;;1.48;;
69085;SDS011;56186;59.144;37.936;2022-08-01T11:11:14;4.10;;;1.63;;
69085;SDS011;56186;59.144;37.936;2022-08-01T11:16:30;4.22;;;1.58;;
69085;SDS011;56186;59.144;37.936;2022-08-01T11:21:57;3.45;;;1.60;;
69085;SDS011;56186;59.144;37.936;2022-08-01T11:32:34;3.60;;;1.60;;
69085;SDS011;56186;59.144;37.936;2022-08-01T11:35:11;4.85;;;1.75;;
69085;SDS011;56186;59.144;37.936;2022-08-01T11:37:38;4.00;;;1.40;;
69085;SDS011;56186;59.144;37.936;2022-08-01T11:42:47;5.10;;;1.70;;
69085;SDS011;56186;59.144;37.936;2022-08-01T11:45:14;6.38;;;1.80;;
69085;SDS011;56186;59.144;37.936;2022-08-01T11:47:49;5.65;;;2.08;;
69085;SDS011;56186;59.144;37.936;2022-08-01T11:52:58;3.70;;;1.70;;
69085;SDS011;56186;59.144;37.936;2022-08-01T11:55:24;5.30;;;1.60;;
69085;SDS011;56186;59.144;37.936;2022-08-01T11:57:57;4.57;;;1.60;;
69085;SDS011;56186;59.144;37.936;2022-08-01T12:00:40;4.00;;;1.73;;
69085;SDS011;56186;59.144;37.936;2022-08-01T12:03:07;4.15;;;1.60;;
69085;SDS011;56186;59.144;37.936;2022-08-01T12:05:36;4.13;;;1.70;;
69085;SDS011;56186;59.144;37.936;2022-08-01T12:08:03;4.65;;;1.90;;
69085;SDS011;56186;59.144;37.936;2022-08-01T12:10:32;4.38;;;1.75;;
69085;SDS011;56186;59.144;37.936;2022-08-01T12:13:02;7.00;;;1.70;;
69085;SDS011;56186;59.144;37.936;2022-08-01T12:15:33;4.60;;;1.80;;
69085;SDS011;56186;59.144;37.936;2022-08-01T12:18:01;3.65;;;1.58;;
69085;SDS011;56186;59.144;37.936;2022-08-01T12:20:34;6.63;;;1.70;;
69085;SDS011;56186;59.144;37.936;2022-08-01T12:23:11;3.50;;;1.60;;
69085;SDS011;56186;59.144;37.936;2022-08-01T12:25:38;3.55;;;1.60;;
69085;SDS011;56186;59.144;37.936;2022-08-01T12:28:15;4.18;;;1.70;;
69085;SDS011;56186;59.144;37.936;2022-08-01T12:30:43;4.82;;;1.52;;
69085;SDS011;56186;59.144;37.936;2022-08-01T12:33:16;5.35;;;1.60;;
69085;SDS011;56186;59.144;37.936;2022-08-01T12:35:44;4.03;;;1.70;;
69085;SDS011;56186;59.144;37.936;2022-08-01T12:38:19;5.28;;;1.60;;
69085;SDS011;56186;59.144;37.936;2022-08-01T12:40:55;4.13;;;1.70;;
69085;SDS011;56186;59.144;37.936;2022-08-01T12:43:21;4.22;;;1.55;;
69085;SDS011;56186;59.144;37.936;2022-08-01T12:45:53;4.05;;;1.50;;
69085;SDS011;56186;59.144;37.936;2022-08-01T12:48:19;3.50;;;1.50;;
69085;SDS011;56186;59.144;37.936;2022-08-01T12:50:46;3.78;;;1.70;;
69085;SDS011;56186;59.144;37.936;2022-08-01T12:53:14;3.60;;;1.60;;
69085;SDS011;56186;59.144;37.936;2022-08-01T12:58:15;4.00;;;1.70;;
69085;SDS011;56186;59.144;37.936;2022-08-01T13:00:43;4.45;;;1.60;;
69085;SDS011;56186;59.144;37.936;2022-08-01T13:03:12;3.85;;;1.60;;
69085;SDS011;56186;59.144;37.936;2022-08-01T13:08:29;4.13;;;1.70;;
69085;SDS011;56186;59.144;37.936;2022-08-01T13:11:03;3.95;;;1.60;;
69085;SDS011;56186;59.144;37.936;2022-08-01T13:16:06;3.90;;;1.50;;
69085;SDS011;56186;59.144;37.936;2022-08-01T13:18:34;8.05;;;1.60;;
69085;SDS011;56186;59.144;37.936;2022-08-01T13:21:13;4.93;;;1.70;;
69085;SDS011;56186;59.144;37.936;2022-08-01T13:24:03;6.00;;;1.60;;
69085;SDS011;56186;59.144;37.936;2022-08-01T13:29:10;4.82;;;1.90;;
69085;SDS011;56186;59.144;37.936;2022-08-01T13:31:38;7.22;;;1.70;;
69085;SDS011;56186;59.144;37.936;2022-08-01T13:34:05;6.13;;;1.70;;
69085;SDS011;56186;59.144;37.936;2022-08-01T13:36:31;7.78;;;1.95;;
69085;SDS011;56186;59.144;37.936;2022-08-01T13:38:58;3.85;;;1.92;;
69085;SDS011;56186;59.144;37.936;2022-08-01T13:41:47;4.13;;;1.60;;
69085;SDS011;56186;59.144;37.936;2022-08-01T13:44:13;3.88;;;1.80;;
69085;SDS011;56186;59.144;37.936;2022-08-01T13:46:40;3.90;;;1.70;;
69085;SDS011;56186;59.144;37.936;2022-08-01T13:49:08;4.68;;;1.70;;
69085;SDS011;56186;59.144;37.936;2022-08-01T13:51:35;4.47;;;1.63;;
69085;SDS011;56186;59.144;37.936;2022-08-01T13:54:03;4.90;;;2.50;;
69085;SDS011;56186;59.144;37.936;2022-08-01T13:56:29;8.55;;;2.80;;
69085;SDS011;56186;59.144;37.936;2022-08-01T13:58:55;6.95;;;3.40;;
69085;SDS011;56186;59.144;37.936;2022-08-01T14:01:22;5.85;;;3.08;;
69085;SDS011;56186;59.144;37.936;2022-08-01T14:03:49;5.72;;;2.10;;
69085;SDS011;56186;59.144;37.936;2022-08-01T14:06:16;5.65;;;2.03;;
69085;SDS011;56186;59.144;37.936;2022-08-01T14:08:43;6.25;;;2.83;;
69085;SDS011;56186;59.144;37.936;2022-08-01T14:11:09;7.25;;;2.60;;
69085;SDS011;56186;59.144;37.936;2022-08-01T14:13:36;6.70;;;2.17;;
69085;SDS011;56186;59.144;37.936;2022-08-01T14:19:10;6.70;;;1.70;;
69085;SDS011;56186;59.144;37.936;2022-08-01T14:21:36;3.70;;;1.58;;
69085;SDS011;56186;59.144;37.936;2022-08-01T14:24:02;4.32;;;2.03;;
69085;SDS011;56186;59.144;37.936;2022-08-01T14:26:28;3.95;;;1.65;;
69085;SDS011;56186;59.144;37.936;2022-08-01T14:28:54;5.40;;;1.92;;
69085;SDS011;56186;59.144;37.936;2022-08-01T14:31:19;5.35;;;1.55;;
69085;SDS011;56186;59.144;37.936;2022-08-01T14:33:45;5.05;;;1.70;;
69085;SDS011;56186;59.144;37.936;2022-08-01T14:36:11;6.38;;;2.05;;
69085;SDS011;56186;59.144;37.936;2022-08-01T14:38:37;4.65;;;1.70;;
69085;SDS011;56186;59.144;37.936;2022-08-01T14:41:03;7.07;;;2.30;;
69085;SDS011;56186;59.144;37.936;2022-08-01T14:43:29;4.05;;;1.50;;
69085;SDS011;56186;59.144;37.936;2022-08-01T14:45:56;3.95;;;1.80;;
69085;SDS011;56186;59.144;37.936;2022-08-01T14:51:17;4.10;;;1.50;;
69085;SDS011;56186;59.144;37.936;2022-08-01T14:53:43;6.60;;;1.70;;
69085;SDS011;56186;59.144;37.936;2022-08-01T14:56:08;4.82;;;1.50;;
69085;SDS011;56186;59.144;37.936;2022-08-01T14:58:35;4.72;;;1.55;;
69085;SDS011;56186;59.144;37.936;2022-08-01T15:01:00;5.53;;;1.88;;
69085;SDS011;56186;59.144;37.936;2022-08-01T15:03:26;5.75;;;1.90;;
69085;SDS011;56186;59.144;37.936;2022-08-01T15:05:52;3.78;;;1.50;;
69085;SDS011;56186;59.144;37.936;2022-08-01T15:08:18;3.78;;;1.40;;
69085;SDS011;56186;59.144;37.936;2022-08-01T15:10:44;4.13;;;1.83;;
69085;SDS011;56186;59.144;37.936;2022-08-01T15:13:10;6.38;;;2.20;;
69085;SDS011;56186;59.144;37.936;2022-08-01T15:15:36;6.28;;;2.83;;
69085;SDS011;56186;59.144;37.936;2022-08-01T15:18:02;8.00;;;3.78;;
69085;SDS011;56186;59.144;37.936;2022-08-01T15:20:28;8.02;;;3.63;;
69085;SDS011;56186;59.144;37.936;2022-08-01T15:22:55;4.85;;;2.10;;
69085;SDS011;56186;59.144;37.936;2022-08-01T15:25:21;5.97;;;2.15;;
69085;SDS011;56186;59.144;37.936;2022-08-01T15:27:47;6.10;;;2.97;;
69085;SDS011;56186;59.144;37.936;2022-08-01T15:30:13;7.47;;;2.40;;
69085;SDS011;56186;59.144;37.936;2022-08-01T15:32:39;4.60;;;2.50;;
69085;SDS011;56186;59.144;37.936;2022-08-01T15:35:05;7.40;;;2.45;;
69085;SDS011;56186;59.144;37.936;2022-08-01T18:11:28;6.70;;;2.00;;
69085;SDS011;56186;59.144;37.936;2022-08-01T18:13:54;5.20;;;2.10;;
69085;SDS011;56186;59.144;37.936;2022-08-01T18:16:21;5.60;;;2.10;;
69085;SDS011;56186;59.144;37.936;2022-08-01T18:18:47;5.45;;;1.90;;
69085;SDS011;56186;59.144;37.936;2022-08-01T18:21:13;7.13;;;2.58;;
69085;SDS011;56186;59.144;37.936;2022-08-01T18:23:39;8.40;;;2.30;;
69085;SDS011;56186;59.144;37.936;2022-08-01T18:26:06;4.10;;;1.70;;
69085;SDS011;56186;59.144;37.936;2022-08-01T18:28:34;4.18;;;1.80;;
69085;SDS011;56186;59.144;37.936;2022-08-01T18:31:05;6.68;;;2.90;;